createdAt,value
2019-01-20T00:02:28.450Z,56.90
2019-01-20T00:04:59.800Z,56.76
2019-01-20T00:07:31.097Z,56.60
2019-01-20T00:10:02.343Z,57.00
2019-01-20T00:12:33.328Z,57.38
2019-01-20T00:15:05.651Z,56.88
2019-01-20T00:17:36.722Z,57.32
2019-01-20T00:20:08.427Z,57.62
2019-01-20T00:22:40.106Z,57.12
2019-01-20T00:25:12.364Z,57.37
2019-01-20T00:27:43.626Z,57.42
2019-01-20T00:30:15.095Z,57.36
2019-01-20T00:32:46.780Z,57.40
2019-01-20T00:35:17.844Z,57.28
2019-01-20T00:37:49.122Z,57.42
2019-01-20T00:40:20.263Z,57.75
2019-01-20T00:42:51.548Z,56.95
2019-01-20T00:45:22.667Z,57.38
2019-01-20T00:47:53.635Z,57.34
2019-01-20T00:50:24.661Z,57.14
2019-01-20T00:52:56.294Z,57.77
2019-01-20T00:55:27.372Z,57.75
2019-01-20T00:57:58.999Z,57.66
2019-01-20T01:00:32.689Z,57.25
2019-01-20T01:03:03.751Z,57.92
2019-01-20T01:05:35.494Z,57.66
2019-01-20T01:08:07.091Z,57.96
2019-01-20T01:10:38.190Z,58.40
2019-01-20T01:13:10.255Z,58.59
2019-01-20T01:15:42.221Z,57.90
2019-01-20T01:18:13.606Z,57.95
2019-01-20T01:20:44.843Z,57.84
2019-01-20T01:23:17.017Z,57.97
2019-01-20T01:25:48.063Z,58.18
2019-01-20T01:28:19.470Z,57.58
2019-01-20T01:30:51.127Z,58.42
2019-01-20T01:33:22.205Z,57.45
2019-01-20T01:35:54.032Z,57.61
2019-01-20T01:38:25.243Z,58.27
2019-01-20T01:40:56.450Z,57.51
2019-01-20T01:43:27.783Z,57.44
2019-01-20T01:45:59.162Z,57.01
2019-01-20T01:48:30.440Z,57.06
2019-01-20T01:51:01.537Z,58.11
2019-01-20T01:53:32.573Z,58.12
2019-01-20T01:56:04.192Z,57.52
2019-01-20T01:58:35.265Z,58.13
2019-01-20T02:01:07.001Z,57.65
2019-01-20T02:03:37.965Z,57.27
2019-01-20T02:06:09.085Z,57.14
2019-01-20T02:08:40.058Z,57.35
2019-01-20T02:11:11.883Z,57.30
2019-01-20T02:13:42.937Z,57.86
2019-01-20T02:16:14.008Z,57.62
2019-01-20T02:18:46.374Z,57.70
2019-01-20T02:21:17.419Z,58.53
2019-01-20T02:23:48.431Z,58.02
2019-01-20T02:26:19.501Z,58.25
2019-01-20T02:28:50.728Z,57.78
2019-01-20T02:31:21.789Z,57.72
2019-01-20T02:33:52.867Z,58.36
2019-01-20T02:36:24.755Z,58.46
2019-01-20T02:38:56.099Z,58.33
2019-01-20T02:41:27.082Z,57.73
2019-01-20T02:43:58.302Z,58.05
2019-01-20T02:46:29.738Z,58.19
2019-01-20T02:49:00.808Z,58.40
2019-01-20T02:51:31.975Z,57.69
2019-01-20T02:54:02.931Z,57.95
2019-01-20T02:56:33.994Z,58.30
2019-01-20T02:59:05.276Z,58.18
2019-01-20T03:01:36.603Z,58.56
2019-01-20T03:04:07.600Z,58.17
2019-01-20T03:06:38.893Z,58.79
2019-01-20T03:09:10.843Z,58.72
2019-01-20T03:11:41.932Z,58.63
2019-01-20T03:14:12.911Z,58.23
2019-01-20T03:16:44.432Z,58.21
2019-01-20T03:19:15.660Z,58.16
2019-01-20T03:21:47.022Z,58.40
2019-01-20T03:24:17.995Z,59.04
2019-01-20T03:26:49.057Z,58.53
2019-01-20T03:29:20.031Z,58.49
2019-01-20T03:31:51.972Z,58.36
2019-01-20T03:34:23.623Z,57.91
2019-01-20T03:36:54.681Z,57.78
2019-01-20T03:39:26.095Z,57.69
2019-01-20T03:41:57.178Z,57.98
2019-01-20T03:44:28.400Z,57.57
2019-01-20T03:46:59.696Z,57.72
2019-01-20T03:49:30.672Z,57.77
2019-01-20T03:52:02.460Z,57.82
2019-01-20T03:54:33.421Z,57.87
2019-01-20T03:57:04.853Z,57.68
2019-01-20T03:59:35.967Z,57.87
2019-01-20T04:02:07.271Z,57.76
2019-01-20T04:04:38.269Z,57.11
2019-01-20T04:07:09.418Z,57.09
2019-01-20T04:09:40.381Z,57.41
2019-01-20T04:12:11.443Z,58.01
2019-01-20T04:14:42.462Z,57.73
2019-01-20T04:17:13.782Z,58.21
2019-01-20T04:19:44.828Z,58.08
2019-01-20T04:22:15.806Z,58.42
2019-01-20T04:24:48.134Z,58.04
2019-01-20T04:27:19.119Z,57.37
2019-01-20T04:29:50.096Z,57.39
2019-01-20T04:32:21.465Z,57.23
2019-01-20T04:34:52.814Z,57.79
2019-01-20T04:37:23.815Z,57.88
2019-01-20T04:39:54.909Z,57.42
2019-01-20T04:42:29.220Z,57.51
2019-01-20T04:44:59.218Z,57.39
2019-01-20T04:47:30.275Z,57.64
2019-01-20T04:50:01.230Z,58.08
2019-01-20T04:52:32.283Z,58.29
2019-01-20T04:55:03.335Z,57.84
2019-01-20T04:57:35.169Z,58.23
2019-01-20T05:00:11.013Z,58.43
2019-01-20T05:02:42.189Z,58.84
2019-01-20T05:05:13.220Z,58.45
2019-01-20T05:07:44.397Z,58.47
2019-01-20T05:10:16.489Z,58.48
2019-01-20T05:12:48.093Z,58.39
2019-01-20T05:15:22.145Z,58.39
2019-01-20T05:17:53.276Z,58.47
2019-01-20T05:20:24.309Z,58.40
2019-01-20T05:22:55.704Z,58.27
2019-01-20T05:25:26.708Z,58.11
2019-01-20T05:27:57.823Z,57.79
2019-01-20T05:30:28.955Z,58.05
2019-01-20T05:33:00.273Z,58.01
2019-01-20T05:35:31.321Z,58.13
2019-01-20T05:38:02.310Z,58.40
2019-01-20T05:40:33.378Z,58.05
2019-01-20T05:43:04.804Z,58.15
2019-01-20T05:45:35.736Z,58.17
2019-01-20T05:48:06.715Z,58.12
2019-01-20T05:50:37.692Z,58.43
2019-01-20T05:53:09.014Z,58.04
2019-01-20T05:55:39.987Z,58.18
2019-01-20T05:58:10.970Z,58.47
2019-01-20T06:00:42.157Z,58.43
2019-01-20T06:03:13.377Z,58.50
2019-01-20T06:05:44.425Z,58.12
2019-01-20T06:08:15.680Z,58.38
2019-01-20T06:10:46.713Z,58.22
2019-01-20T06:13:18.028Z,58.23
2019-01-20T06:15:49.310Z,58.53
2019-01-20T06:18:20.618Z,58.63
2019-01-20T06:20:52.830Z,58.82
2019-01-20T06:23:24.077Z,58.47
2019-01-20T06:25:55.131Z,58.27
2019-01-20T06:28:26.151Z,57.89
2019-01-20T06:30:57.128Z,58.44
2019-01-20T06:33:28.191Z,58.92
2019-01-20T06:35:59.156Z,58.50
2019-01-20T06:38:30.190Z,58.16
2019-01-20T06:41:01.489Z,58.46
2019-01-20T06:43:32.499Z,58.15
2019-01-20T06:46:03.967Z,58.11
2019-01-20T06:48:35.047Z,57.89
2019-01-20T06:51:06.393Z,57.69
2019-01-20T06:53:37.394Z,57.66
2019-01-20T06:56:08.550Z,57.79
2019-01-20T06:58:39.539Z,57.64
2019-01-20T07:01:10.533Z,57.31
2019-01-20T07:03:41.571Z,57.88
2019-01-20T07:06:13.002Z,58.02
2019-01-20T07:08:45.693Z,57.47
2019-01-20T07:11:16.731Z,57.63
2019-01-20T07:13:47.810Z,58.28
2019-01-20T07:16:18.820Z,57.85
2019-01-20T07:18:49.938Z,57.42
2019-01-20T07:21:20.995Z,58.15
2019-01-20T07:23:52.792Z,58.19
2019-01-20T07:26:24.405Z,57.62
2019-01-20T07:28:55.451Z,57.33
2019-01-20T07:31:28.025Z,57.61
2019-01-20T07:33:59.110Z,57.19
2019-01-20T07:36:30.307Z,57.27
2019-01-20T07:39:01.361Z,57.45
2019-01-20T07:41:32.592Z,57.17
2019-01-20T07:44:03.736Z,57.60
2019-01-20T07:46:34.884Z,57.47
2019-01-20T07:49:05.929Z,57.87
2019-01-20T07:51:37.130Z,57.98
2019-01-20T07:54:08.106Z,58.10
2019-01-20T07:56:39.183Z,58.05
2019-01-20T07:59:10.312Z,58.24
2019-01-20T08:01:41.635Z,58.18
2019-01-20T08:04:12.850Z,58.71
2019-01-20T08:06:43.897Z,58.71
2019-01-20T08:09:14.987Z,58.41
2019-01-20T08:11:46.071Z,58.41
2019-01-20T08:14:17.063Z,58.18
2019-01-20T08:16:48.103Z,58.44
2019-01-20T08:19:19.534Z,58.72
2019-01-20T08:21:51.011Z,59.03
2019-01-20T08:24:23.170Z,59.36
2019-01-20T08:26:54.123Z,59.37
2019-01-20T08:29:25.793Z,59.35
2019-01-20T08:31:57.218Z,59.32
2019-01-20T08:34:28.467Z,59.45
2019-01-20T08:36:59.413Z,59.67
2019-01-20T08:39:30.402Z,59.40
2019-01-20T08:42:01.688Z,59.10
2019-01-20T08:44:38.051Z,58.89
2019-01-20T08:47:34.865Z,59.38
2019-01-20T08:50:12.004Z,59.92
2019-01-20T08:52:43.122Z,59.84
2019-01-20T08:55:14.256Z,59.68
2019-01-20T08:57:45.386Z,59.68
2019-01-20T09:00:19.864Z,59.87
2019-01-20T09:02:50.940Z,59.91
2019-01-20T09:05:23.337Z,59.72
2019-01-20T09:07:54.479Z,60.02
2019-01-20T09:10:27.705Z,59.59
2019-01-20T09:13:03.770Z,58.89
2019-01-20T09:15:34.754Z,58.90
2019-01-20T09:18:06.661Z,59.25
2019-01-20T09:20:38.094Z,59.32
2019-01-20T09:23:09.458Z,59.46
2019-01-20T09:25:40.914Z,58.89
2019-01-20T09:28:12.761Z,58.91
2019-01-20T09:30:44.987Z,59.10
2019-01-20T09:33:24.338Z,59.39
2019-01-20T09:35:49.079Z,58.93
2019-01-20T09:38:20.193Z,59.88
2019-01-20T09:40:51.181Z,59.31
2019-01-20T09:43:23.519Z,58.66
2019-01-20T09:45:55.751Z,58.39
2019-01-20T09:48:26.706Z,58.67
2019-01-20T09:50:57.766Z,58.39
2019-01-20T09:53:29.115Z,58.56
2019-01-20T09:56:00.846Z,58.93
2019-01-20T09:58:31.836Z,58.81
2019-01-20T10:01:03.022Z,59.16
2019-01-20T10:03:34.506Z,59.16
2019-01-20T10:06:05.897Z,59.82
2019-01-20T10:08:37.126Z,59.67
2019-01-20T10:11:08.281Z,59.85
2019-01-20T10:13:39.993Z,58.86
2019-01-20T10:16:11.978Z,59.49
2019-01-20T10:18:43.119Z,59.80
2019-01-20T10:21:14.455Z,59.87
2019-01-20T10:23:45.495Z,60.35
2019-01-20T10:26:16.548Z,60.39
2019-01-20T10:28:48.736Z,60.53
2019-01-20T10:31:19.864Z,60.39
2019-01-20T10:33:51.190Z,60.79
2019-01-20T10:36:23.574Z,60.15
2019-01-20T10:38:54.535Z,60.65
2019-01-20T10:41:25.641Z,61.17
2019-01-20T10:44:02.143Z,60.94
2019-01-20T10:46:30.081Z,60.82
2019-01-20T10:49:01.440Z,61.02
2019-01-20T10:51:32.651Z,60.60
2019-01-20T10:54:03.642Z,61.05
2019-01-20T10:56:34.719Z,61.16
2019-01-20T10:59:06.604Z,61.65
2019-01-20T11:01:37.918Z,61.26
2019-01-20T11:04:09.224Z,61.16
2019-01-20T11:06:40.816Z,60.81
2019-01-20T11:09:12.904Z,60.87
2019-01-20T11:11:43.870Z,61.06
2019-01-20T11:14:14.855Z,60.62
2019-01-20T11:16:46.020Z,60.53
2019-01-20T11:19:16.996Z,60.91
2019-01-20T11:21:48.009Z,61.02
2019-01-20T11:24:19.117Z,60.97
2019-01-20T11:26:51.612Z,61.03
2019-01-20T11:29:23.461Z,60.45
2019-01-20T11:31:55.133Z,60.11
2019-01-20T11:34:26.091Z,60.46
2019-01-20T11:36:57.112Z,60.75
2019-01-20T11:39:28.076Z,60.20
2019-01-20T11:41:59.179Z,59.93
2019-01-20T11:44:30.208Z,60.04
2019-01-20T11:47:01.539Z,59.84
2019-01-20T11:49:32.602Z,59.78
2019-01-20T11:52:04.184Z,59.73
2019-01-20T11:54:35.217Z,60.09
2019-01-20T11:57:06.376Z,59.97
2019-01-20T11:59:37.342Z,60.28
2019-01-20T12:02:08.472Z,60.02
2019-01-20T12:04:39.450Z,60.25
2019-01-20T12:07:10.645Z,59.74
2019-01-20T12:09:41.674Z,59.91
2019-01-20T12:12:13.181Z,60.52
2019-01-20T12:14:44.234Z,60.68
2019-01-20T12:17:15.370Z,60.38
2019-01-20T12:19:46.606Z,60.30
2019-01-20T12:22:18.077Z,60.47
2019-01-20T12:24:49.120Z,60.69
2019-01-20T12:27:20.449Z,60.20
2019-01-20T12:29:52.624Z,60.39
2019-01-20T12:32:23.977Z,60.24
2019-01-20T12:34:55.310Z,60.00
2019-01-20T12:37:26.387Z,59.91
2019-01-20T12:39:59.907Z,60.11
2019-01-20T12:42:31.309Z,60.07
2019-01-20T12:45:02.515Z,60.13
2019-01-20T12:47:33.477Z,60.07
2019-01-20T12:50:05.935Z,60.02
2019-01-20T12:52:37.200Z,59.59
2019-01-20T12:55:08.865Z,59.62
2019-01-20T12:57:39.909Z,59.52
2019-01-20T13:00:14.213Z,59.31
2019-01-20T13:02:45.715Z,59.30
2019-01-20T13:05:16.862Z,59.01
2019-01-20T13:07:48.001Z,59.45
2019-01-20T13:10:19.251Z,59.52
2019-01-20T13:12:50.474Z,59.68
2019-01-20T13:15:22.638Z,59.74
2019-01-20T13:17:53.884Z,59.88
2019-01-20T13:20:26.066Z,60.08
2019-01-20T13:22:57.678Z,60.22
2019-01-20T13:25:30.849Z,59.96
2019-01-20T13:28:02.171Z,59.87
2019-01-20T13:30:33.366Z,59.53
2019-01-20T13:33:04.587Z,59.28
2019-01-20T13:35:35.646Z,58.81
2019-01-20T13:38:18.923Z,58.99
2019-01-20T13:41:19.825Z,58.77
2019-01-20T13:43:51.491Z,58.70
2019-01-20T13:46:23.528Z,58.66
2019-01-20T13:48:55.780Z,58.39
2019-01-20T13:51:26.756Z,58.46
2019-01-20T13:53:57.890Z,58.77
2019-01-20T13:56:28.930Z,58.63
2019-01-20T13:59:00.029Z,58.64
2019-01-20T14:01:31.149Z,58.80
2019-01-20T14:04:03.189Z,58.81
2019-01-20T14:06:34.294Z,58.26
2019-01-20T14:09:08.218Z,57.90
2019-01-20T14:11:39.337Z,58.31
2019-01-20T14:14:10.584Z,58.35
2019-01-20T14:16:41.966Z,58.10
2019-01-20T14:19:13.165Z,57.83
2019-01-20T14:21:44.356Z,57.84
2019-01-20T14:24:15.431Z,58.21
2019-01-20T14:26:46.396Z,58.11
2019-01-20T14:29:17.454Z,58.12
2019-01-20T14:31:48.565Z,57.99
2019-01-20T14:34:19.723Z,58.17
2019-01-20T14:36:50.990Z,57.97
2019-01-20T14:39:22.084Z,58.15
2019-01-20T14:41:53.559Z,57.76
2019-01-20T14:44:24.627Z,58.28
2019-01-20T14:46:56.524Z,57.89
2019-01-20T14:49:27.751Z,57.82
2019-01-20T14:51:59.023Z,57.71
2019-01-20T14:54:30.096Z,57.81
2019-01-20T14:57:01.148Z,57.99
2019-01-20T14:59:32.220Z,57.94
2019-01-20T15:02:03.533Z,57.92
2019-01-20T15:04:34.665Z,57.60
2019-01-20T15:07:06.024Z,57.46
2019-01-20T15:09:37.329Z,57.84
2019-01-20T15:12:08.530Z,57.43
2019-01-20T15:14:39.939Z,57.52
2019-01-20T15:17:11.485Z,57.20
2019-01-20T15:19:42.905Z,57.39
2019-01-20T15:22:14.115Z,57.42
2019-01-20T15:24:45.190Z,57.34
2019-01-20T15:27:16.474Z,57.37
2019-01-20T15:29:47.550Z,57.27
2019-01-20T15:32:18.575Z,57.35
2019-01-20T15:34:49.909Z,57.72
2019-01-20T15:37:21.041Z,57.67
2019-01-20T15:39:52.109Z,57.37
2019-01-20T15:42:23.078Z,57.32
2019-01-20T15:44:54.222Z,57.90
2019-01-20T15:47:25.175Z,57.18
2019-01-20T15:49:57.273Z,57.71
2019-01-20T15:52:28.238Z,57.76
2019-01-20T15:54:59.540Z,57.80
2019-01-20T15:57:30.509Z,57.83
2019-01-20T16:00:01.909Z,57.87
2019-01-20T16:02:33.214Z,57.59
2019-01-20T16:05:05.113Z,57.73
2019-01-20T16:07:36.456Z,57.89
2019-01-20T16:10:09.535Z,57.72
2019-01-20T16:12:40.644Z,58.31
2019-01-20T16:15:16.177Z,58.21
2019-01-20T16:17:48.394Z,58.20
2019-01-20T16:20:20.010Z,58.36
2019-01-20T16:22:51.440Z,58.17
2019-01-20T16:25:28.661Z,58.46
2019-01-20T16:27:59.944Z,58.21
2019-01-20T16:30:34.379Z,58.55
2019-01-20T16:33:05.791Z,58.54
2019-01-20T16:35:37.326Z,58.66
2019-01-20T16:38:11.005Z,58.93
2019-01-20T16:40:42.439Z,58.75
2019-01-20T16:43:13.589Z,58.86
2019-01-20T16:45:47.076Z,59.38
2019-01-20T16:48:18.189Z,59.49
2019-01-20T16:50:49.406Z,59.07
2019-01-20T16:53:20.429Z,58.97
2019-01-20T16:55:51.550Z,58.77
2019-01-20T16:58:22.711Z,59.15
2019-01-20T17:00:54.599Z,59.04
2019-01-20T17:03:26.110Z,59.40
2019-01-20T17:05:57.635Z,59.40
2019-01-20T17:08:29.260Z,59.23
2019-01-20T17:11:00.341Z,59.29
2019-01-20T17:13:32.403Z,59.23
2019-01-20T17:16:03.558Z,59.04
2019-01-20T17:18:34.859Z,58.86
2019-01-20T17:21:06.314Z,59.25
2019-01-20T17:23:37.266Z,59.68
2019-01-20T17:26:08.714Z,59.62
2019-01-20T17:28:39.766Z,59.80
2019-01-20T17:31:11.234Z,59.70
2019-01-20T17:33:42.190Z,59.94
2019-01-20T17:36:13.558Z,60.01
2019-01-20T17:38:44.702Z,59.90
2019-01-20T17:41:16.170Z,60.30
2019-01-20T17:43:47.146Z,60.25
2019-01-20T17:46:18.225Z,60.24
2019-01-20T17:48:49.186Z,60.33
2019-01-20T17:51:20.353Z,60.22
2019-01-20T17:53:51.587Z,60.14
2019-01-20T17:56:22.930Z,60.65
2019-01-20T17:58:55.506Z,60.18
2019-01-20T18:01:27.813Z,60.50
2019-01-20T18:03:59.347Z,60.74
2019-01-20T18:06:30.524Z,60.95
2019-01-20T18:09:01.546Z,60.93
2019-01-20T18:11:34.037Z,60.79
2019-01-20T18:14:05.369Z,60.79
2019-01-20T18:16:36.421Z,60.52
2019-01-20T18:19:07.406Z,60.62
2019-01-20T18:21:38.578Z,60.34
2019-01-20T18:24:09.812Z,60.09
2019-01-20T18:26:41.179Z,60.16
2019-01-20T18:29:12.273Z,59.90
2019-01-20T18:31:43.302Z,59.93
2019-01-20T18:34:14.438Z,59.79
2019-01-20T18:36:45.496Z,59.79
2019-01-20T18:39:16.782Z,59.84
2019-01-20T18:41:48.298Z,59.37
2019-01-20T18:44:19.296Z,59.46
2019-01-20T18:46:50.638Z,59.42
2019-01-20T18:49:22.275Z,59.87
2019-01-20T18:51:53.374Z,60.16
2019-01-20T18:54:24.428Z,59.96
2019-01-20T18:56:55.763Z,59.88
2019-01-20T18:59:26.743Z,59.86
2019-01-20T19:01:57.819Z,59.76
2019-01-20T19:04:29.273Z,59.85
2019-01-20T19:07:00.668Z,60.16
2019-01-20T19:09:32.143Z,59.94
2019-01-20T19:12:04.525Z,59.93
2019-01-20T19:14:37.193Z,59.60
2019-01-20T19:17:09.109Z,59.33
2019-01-20T19:19:40.507Z,59.24
2019-01-20T19:22:12.157Z,59.77
2019-01-20T19:24:43.820Z,59.92
2019-01-20T19:27:14.997Z,59.75
2019-01-20T19:29:46.140Z,59.61
2019-01-20T19:32:17.561Z,59.83
2019-01-20T19:34:48.522Z,59.94
2019-01-20T19:37:19.555Z,60.04
2019-01-20T19:39:55.394Z,60.28
2019-01-20T19:42:27.210Z,60.28
2019-01-20T19:45:00.824Z,60.01
2019-01-20T19:47:32.101Z,60.02
2019-01-20T19:50:03.158Z,60.15
2019-01-20T19:52:34.384Z,60.04
2019-01-20T19:55:09.942Z,60.06
2019-01-20T19:57:40.974Z,59.72
2019-01-20T20:00:16.032Z,59.99
2019-01-20T20:02:47.853Z,59.82
2019-01-20T20:05:19.684Z,59.55
2019-01-20T20:10:47.836Z,59.91
2019-01-20T20:13:19.324Z,60.61
2019-01-20T20:15:50.339Z,60.01
2019-01-20T20:18:21.693Z,59.96
2019-01-20T20:20:52.930Z,59.89
2019-01-20T20:23:24.195Z,60.38
2019-01-20T20:25:57.710Z,60.53
2019-01-20T20:28:28.971Z,60.23
2019-01-20T20:30:59.946Z,59.99
2019-01-20T20:33:32.256Z,60.36
2019-01-20T20:36:03.518Z,60.38
2019-01-20T20:38:34.529Z,60.50
2019-01-20T20:41:05.563Z,60.41
2019-01-20T20:43:36.907Z,60.56
2019-01-20T20:46:07.947Z,60.33
2019-01-20T20:48:39.277Z,60.41
2019-01-20T20:51:10.438Z,60.64
2019-01-20T20:53:41.661Z,60.47
2019-01-20T20:56:13.323Z,60.44
2019-01-20T20:58:44.669Z,60.54
2019-01-20T21:01:15.820Z,60.50
2019-01-20T21:03:47.170Z,60.54
2019-01-20T21:06:18.185Z,60.61
2019-01-20T21:08:49.673Z,60.63
2019-01-20T21:11:20.807Z,60.70
2019-01-20T21:13:52.432Z,60.73
2019-01-20T21:16:24.804Z,60.75
2019-01-20T21:18:57.363Z,60.79
2019-01-20T21:21:28.584Z,60.84
2019-01-20T21:24:00.154Z,61.02
2019-01-20T21:26:31.129Z,60.91
2019-01-20T21:29:03.235Z,60.79
2019-01-20T21:31:35.823Z,61.05
2019-01-20T21:34:06.843Z,60.81
2019-01-20T21:36:37.801Z,60.93
2019-01-20T21:39:09.791Z,60.89
2019-01-20T21:41:40.835Z,60.73
2019-01-20T21:44:11.872Z,60.69
2019-01-20T21:46:45.379Z,60.48
2019-01-20T21:49:16.395Z,60.81
2019-01-20T21:51:47.372Z,60.64
2019-01-20T21:54:18.477Z,61.01
2019-01-20T21:56:49.682Z,61.07
2019-01-20T21:59:21.027Z,61.02
2019-01-20T22:01:51.990Z,61.13
2019-01-20T22:04:22.981Z,60.72
2019-01-20T22:06:54.050Z,60.95
2019-01-20T22:09:25.555Z,61.28
2019-01-20T22:11:57.737Z,60.96
2019-01-20T22:14:28.792Z,60.78
2019-01-20T22:16:59.919Z,60.40
2019-01-20T22:19:31.231Z,60.15
2019-01-20T22:22:02.463Z,61.17
2019-01-20T22:24:33.446Z,61.00
2019-01-20T22:27:04.669Z,61.15
2019-01-20T22:29:35.674Z,60.98
2019-01-20T22:32:06.867Z,60.82
2019-01-20T22:34:37.864Z,60.58
2019-01-20T22:37:09.077Z,60.31
2019-01-20T22:39:40.089Z,60.67
2019-01-20T22:42:11.141Z,60.69
2019-01-20T22:44:42.145Z,60.56
2019-01-20T22:47:13.170Z,60.33
2019-01-20T22:49:44.161Z,60.38
2019-01-20T22:52:15.564Z,60.51
2019-01-20T22:54:46.880Z,60.65
2019-01-20T22:57:18.114Z,60.79
2019-01-20T22:59:49.110Z,60.66
2019-01-20T23:02:20.440Z,61.30
2019-01-20T23:04:51.483Z,61.38
2019-01-20T23:07:22.858Z,61.19
2019-01-20T23:09:53.915Z,61.72
2019-01-20T23:12:25.257Z,61.57
2019-01-20T23:14:56.298Z,61.93
2019-01-20T23:17:27.278Z,61.59
2019-01-20T23:19:58.287Z,61.19
2019-01-20T23:22:29.507Z,61.46
2019-01-20T23:25:00.688Z,61.54
2019-01-20T23:27:31.732Z,61.73
2019-01-20T23:30:04.475Z,61.86
2019-01-20T23:32:35.816Z,60.53
2019-01-20T23:35:07.531Z,60.59
2019-01-20T23:37:38.933Z,60.97
2019-01-20T23:40:10.767Z,61.82
2019-01-20T23:42:41.893Z,61.57
2019-01-20T23:45:13.724Z,61.65
2019-01-20T23:47:45.040Z,61.88
2019-01-20T23:50:16.350Z,61.65
2019-01-20T23:52:47.947Z,61.50
2019-01-20T23:55:19.080Z,61.25
2019-01-20T23:57:50.145Z,61.25
